sensor_id;sensor_type;location;lat;lon;timestamp;pressure;altitude;pressure_sealevel;temperature;humidity
65754;BME280;69207;47.502;18.940;2024-01-06T00:00:45;97137.59;;;5.46;92.66
65754;BME280;69207;47.502;18.940;2024-01-06T00:01:48;97144.16;;;5.43;92.89
65754;BME280;69207;47.502;18.940;2024-01-06T00:02:51;97135.16;;;5.50;92.83
65754;BME280;69207;47.502;18.940;2024-01-06T00:03:55;97135.16;;;5.50;92.69
65754;BME280;69207;47.502;18.940;2024-01-06T00:04:58;97130.56;;;5.43;92.93
65754;BME280;69207;47.502;18.940;2024-01-06T00:06:01;97135.59;;;5.47;93.06
65754;BME280;69207;47.502;18.940;2024-01-06T00:07:04;97134.28;;;5.48;92.96
65754;BME280;69207;47.502;18.940;2024-01-06T00:08:08;97136.00;;;5.43;93.27
65754;BME280;69207;47.502;18.940;2024-01-06T00:09:11;97133.88;;;5.51;93.07
65754;BME280;69207;47.502;18.940;2024-01-06T00:10:14;97132.72;;;5.45;93.13
65754;BME280;69207;47.502;18.940;2024-01-06T00:11:20;97122.97;;;5.42;93.31
65754;BME280;69207;47.502;18.940;2024-01-06T00:12:23;97125.97;;;5.46;93.27
65754;BME280;69207;47.502;18.940;2024-01-06T00:13:26;97128.25;;;5.49;92.95
65754;BME280;69207;47.502;18.940;2024-01-06T00:14:29;97124.28;;;5.50;92.91
65754;BME280;69207;47.502;18.940;2024-01-06T00:15:33;97122.69;;;5.57;92.74
65754;BME280;69207;47.502;18.940;2024-01-06T00:16:36;97115.09;;;5.55;92.53
65754;BME280;69207;47.502;18.940;2024-01-06T00:17:39;97113.50;;;5.52;92.85
65754;BME280;69207;47.502;18.940;2024-01-06T00:18:42;97110.22;;;5.54;92.92
65754;BME280;69207;47.502;18.940;2024-01-06T00:19:46;97110.66;;;5.70;91.60
65754;BME280;69207;47.502;18.940;2024-01-06T00:20:54;97102.19;;;5.75;90.91
65754;BME280;69207;47.502;18.940;2024-01-06T00:21:57;97108.81;;;5.92;89.53
65754;BME280;69207;47.502;18.940;2024-01-06T00:23:00;97109.53;;;5.92;89.41
65754;BME280;69207;47.502;18.940;2024-01-06T00:24:04;97101.78;;;5.89;89.69
65754;BME280;69207;47.502;18.940;2024-01-06T00:25:08;97104.22;;;5.85;90.00
65754;BME280;69207;47.502;18.940;2024-01-06T00:26:11;97105.06;;;5.87;90.02
65754;BME280;69207;47.502;18.940;2024-01-06T00:27:14;97098.63;;;5.92;89.62
65754;BME280;69207;47.502;18.940;2024-01-06T00:28:19;97102.22;;;5.95;89.54
65754;BME280;69207;47.502;18.940;2024-01-06T00:29:22;97105.22;;;5.89;90.11
65754;BME280;69207;47.502;18.940;2024-01-06T00:30:25;97100.19;;;5.86;90.27
65754;BME280;69207;47.502;18.940;2024-01-06T00:31:29;97109.66;;;5.85;90.52
65754;BME280;69207;47.502;18.940;2024-01-06T00:32:32;97106.78;;;5.82;90.37
65754;BME280;69207;47.502;18.940;2024-01-06T00:33:39;97100.62;;;5.82;90.39
65754;BME280;69207;47.502;18.940;2024-01-06T00:34:42;97103.22;;;5.80;90.40
65754;BME280;69207;47.502;18.940;2024-01-06T00:35:45;97100.47;;;5.80;90.43
65754;BME280;69207;47.502;18.940;2024-01-06T00:36:48;97099.91;;;5.81;90.44
65754;BME280;69207;47.502;18.940;2024-01-06T00:37:51;97103.75;;;5.88;90.04
65754;BME280;69207;47.502;18.940;2024-01-06T00:38:55;97097.91;;;5.92;89.98
65754;BME280;69207;47.502;18.940;2024-01-06T00:39:59;97103.94;;;5.90;89.90
65754;BME280;69207;47.502;18.940;2024-01-06T00:41:02;97095.31;;;5.94;89.63
65754;BME280;69207;47.502;18.940;2024-01-06T00:42:05;97097.19;;;6.01;89.30
65754;BME280;69207;47.502;18.940;2024-01-06T00:43:09;97098.75;;;6.04;89.34
65754;BME280;69207;47.502;18.940;2024-01-06T00:44:12;97092.31;;;5.99;89.46
65754;BME280;69207;47.502;18.940;2024-01-06T00:45:15;97093.47;;;5.96;89.74
65754;BME280;69207;47.502;18.940;2024-01-06T00:46:18;97100.94;;;6.05;89.53
65754;BME280;69207;47.502;18.940;2024-01-06T00:47:21;97087.25;;;6.15;88.35
65754;BME280;69207;47.502;18.940;2024-01-06T00:48:26;97079.66;;;6.14;88.27
65754;BME280;69207;47.502;18.940;2024-01-06T00:49:30;97083.13;;;6.14;88.51
65754;BME280;69207;47.502;18.940;2024-01-06T00:50:33;97084.00;;;6.07;88.75
65754;BME280;69207;47.502;18.940;2024-01-06T00:51:37;97093.91;;;6.02;89.11
65754;BME280;69207;47.502;18.940;2024-01-06T00:52:42;97089.03;;;6.01;89.36
65754;BME280;69207;47.502;18.940;2024-01-06T00:53:45;97087.00;;;5.92;89.57
65754;BME280;69207;47.502;18.940;2024-01-06T00:54:49;97087.84;;;5.85;89.94
65754;BME280;69207;47.502;18.940;2024-01-06T00:55:52;97085.97;;;5.87;89.86
65754;BME280;69207;47.502;18.940;2024-01-06T00:56:55;97085.41;;;5.79;90.24
65754;BME280;69207;47.502;18.940;2024-01-06T00:58:00;97094.59;;;5.74;90.40
65754;BME280;69207;47.502;18.940;2024-01-06T00:59:04;97086.56;;;5.76;90.85
65754;BME280;69207;47.502;18.940;2024-01-06T01:00:07;97089.00;;;5.72;90.99
65754;BME280;69207;47.502;18.940;2024-01-06T01:01:10;97086.44;;;5.74;91.37
65754;BME280;69207;47.502;18.940;2024-01-06T01:02:14;97085.44;;;5.89;91.49
65754;BME280;69207;47.502;18.940;2024-01-06T01:03:18;97096.87;;;5.87;91.36
65754;BME280;69207;47.502;18.940;2024-01-06T01:04:21;97097.34;;;5.93;90.82
65754;BME280;69207;47.502;18.940;2024-01-06T01:05:24;97091.16;;;5.73;91.28
65754;BME280;69207;47.502;18.940;2024-01-06T01:06:28;97090.84;;;5.60;91.79
65754;BME280;69207;47.502;18.940;2024-01-06T01:07:31;97092.31;;;5.51;92.17
65754;BME280;69207;47.502;18.940;2024-01-06T01:08:34;97096.87;;;5.48;92.64
65754;BME280;69207;47.502;18.940;2024-01-06T01:09:37;97079.69;;;5.46;93.07
65754;BME280;69207;47.502;18.940;2024-01-06T01:10:40;97088.25;;;5.42;93.71
65754;BME280;69207;47.502;18.940;2024-01-06T01:11:43;97080.53;;;5.48;93.98
65754;BME280;69207;47.502;18.940;2024-01-06T01:12:47;97094.16;;;5.48;94.14
65754;BME280;69207;47.502;18.940;2024-01-06T01:13:50;97089.84;;;5.36;94.15
65754;BME280;69207;47.502;18.940;2024-01-06T01:14:53;97080.06;;;5.33;94.55
65754;BME280;69207;47.502;18.940;2024-01-06T01:15:57;97083.25;;;5.29;95.39
65754;BME280;69207;47.502;18.940;2024-01-06T01:17:00;97085.38;;;5.30;95.86
65754;BME280;69207;47.502;18.940;2024-01-06T01:18:03;97082.25;;;5.44;96.10
65754;BME280;69207;47.502;18.940;2024-01-06T01:19:07;97081.97;;;5.40;96.29
65754;BME280;69207;47.502;18.940;2024-01-06T01:20:10;97084.13;;;5.41;96.42
65754;BME280;69207;47.502;18.940;2024-01-06T01:21:14;97081.53;;;5.43;96.53
65754;BME280;69207;47.502;18.940;2024-01-06T01:22:18;97089.56;;;5.41;96.67
65754;BME280;69207;47.502;18.940;2024-01-06T01:23:21;97091.44;;;5.39;96.98
65754;BME280;69207;47.502;18.940;2024-01-06T01:24:24;97088.13;;;5.40;97.55
65754;BME280;69207;47.502;18.940;2024-01-06T01:25:27;97085.41;;;5.40;97.49
65754;BME280;69207;47.502;18.940;2024-01-06T01:26:30;97089.69;;;5.43;96.96
65754;BME280;69207;47.502;18.940;2024-01-06T01:27:34;97089.56;;;5.51;96.52
65754;BME280;69207;47.502;18.940;2024-01-06T01:28:37;97087.88;;;5.55;96.13
65754;BME280;69207;47.502;18.940;2024-01-06T01:29:40;97086.28;;;5.52;96.33
65754;BME280;69207;47.502;18.940;2024-01-06T01:30:43;97089.16;;;5.45;96.90
65754;BME280;69207;47.502;18.940;2024-01-06T01:31:47;97082.69;;;5.40;97.64
65754;BME280;69207;47.502;18.940;2024-01-06T01:32:50;97088.13;;;5.40;97.42
65754;BME280;69207;47.502;18.940;2024-01-06T01:33:54;97085.25;;;5.38;97.66
65754;BME280;69207;47.502;18.940;2024-01-06T01:34:58;97074.06;;;5.44;97.67
65754;BME280;69207;47.502;18.940;2024-01-06T01:36:01;97075.53;;;5.45;97.93
65754;BME280;69207;47.502;18.940;2024-01-06T01:37:04;97084.41;;;5.55;97.91
65754;BME280;69207;47.502;18.940;2024-01-06T01:38:07;97073.38;;;5.53;98.34
65754;BME280;69207;47.502;18.940;2024-01-06T01:39:11;97076.81;;;5.53;98.54
65754;BME280;69207;47.502;18.940;2024-01-06T01:40:14;97074.09;;;5.53;98.87
65754;BME280;69207;47.502;18.940;2024-01-06T01:41:17;97079.69;;;5.55;99.07
65754;BME280;69207;47.502;18.940;2024-01-06T01:42:21;97083.97;;;5.59;99.10
65754;BME280;69207;47.502;18.940;2024-01-06T01:43:24;97085.00;;;5.63;98.96
65754;BME280;69207;47.502;18.940;2024-01-06T01:44:28;97074.22;;;5.65;99.00
65754;BME280;69207;47.502;18.940;2024-01-06T01:45:31;97066.34;;;5.69;99.07
65754;BME280;69207;47.502;18.940;2024-01-06T01:46:34;97062.19;;;5.78;98.95
65754;BME280;69207;47.502;18.940;2024-01-06T01:47:37;97067.19;;;5.81;98.99
65754;BME280;69207;47.502;18.940;2024-01-06T01:48:42;97065.34;;;5.84;99.09
65754;BME280;69207;47.502;18.940;2024-01-06T01:49:46;97066.78;;;5.85;99.32
65754;BME280;69207;47.502;18.940;2024-01-06T01:50:50;97058.16;;;5.89;99.33
65754;BME280;69207;47.502;18.940;2024-01-06T01:51:54;97071.53;;;5.94;99.12
65754;BME280;69207;47.502;18.940;2024-01-06T01:52:58;97066.34;;;5.98;98.95
65754;BME280;69207;47.502;18.940;2024-01-06T01:54:04;97064.03;;;6.04;98.75
65754;BME280;69207;47.502;18.940;2024-01-06T01:55:08;97061.59;;;6.08;98.74
65754;BME280;69207;47.502;18.940;2024-01-06T01:56:11;97061.16;;;6.12;98.53
65754;BME280;69207;47.502;18.940;2024-01-06T01:57:16;97055.25;;;6.16;98.58
65754;BME280;69207;47.502;18.940;2024-01-06T01:58:19;97041.78;;;6.18;98.52
65754;BME280;69207;47.502;18.940;2024-01-06T01:59:23;97054.97;;;6.21;98.36
65754;BME280;69207;47.502;18.940;2024-01-06T02:00:27;97047.06;;;6.25;98.30
65754;BME280;69207;47.502;18.940;2024-01-06T02:01:31;97048.19;;;6.32;98.01
65754;BME280;69207;47.502;18.940;2024-01-06T02:02:34;97042.41;;;6.38;97.76
65754;BME280;69207;47.502;18.940;2024-01-06T02:03:41;97041.88;;;6.39;97.92
65754;BME280;69207;47.502;18.940;2024-01-06T02:04:47;97047.44;;;6.41;98.00
65754;BME280;69207;47.502;18.940;2024-01-06T02:05:50;97045.56;;;6.44;97.92
65754;BME280;69207;47.502;18.940;2024-01-06T02:06:53;97046.56;;;6.48;97.85
65754;BME280;69207;47.502;18.940;2024-01-06T02:07:57;97046.41;;;6.56;97.80
65754;BME280;69207;47.502;18.940;2024-01-06T02:09:00;97040.34;;;6.57;97.70
65754;BME280;69207;47.502;18.940;2024-01-06T02:10:04;97048.81;;;6.61;97.65
65754;BME280;69207;47.502;18.940;2024-01-06T02:11:07;97042.47;;;6.69;97.46
65754;BME280;69207;47.502;18.940;2024-01-06T02:12:11;97042.72;;;6.73;97.23
65754;BME280;69207;47.502;18.940;2024-01-06T02:13:14;97045.47;;;6.73;97.25
65754;BME280;69207;47.502;18.940;2024-01-06T02:14:17;97039.41;;;6.74;97.22
65754;BME280;69207;47.502;18.940;2024-01-06T02:15:20;97047.28;;;6.80;97.20
65754;BME280;69207;47.502;18.940;2024-01-06T02:16:23;97040.69;;;7.04;96.25
65754;BME280;69207;47.502;18.940;2024-01-06T02:17:27;97037.69;;;7.22;94.42
65754;BME280;69207;47.502;18.940;2024-01-06T02:18:33;97035.94;;;7.26;94.27
65754;BME280;69207;47.502;18.940;2024-01-06T02:19:37;97039.81;;;7.33;94.07
65754;BME280;69207;47.502;18.940;2024-01-06T02:20:43;97037.19;;;7.35;94.01
65754;BME280;69207;47.502;18.940;2024-01-06T02:21:53;97036.91;;;7.31;94.23
65754;BME280;69207;47.502;18.940;2024-01-06T02:22:56;97037.38;;;7.27;94.56
65754;BME280;69207;47.502;18.940;2024-01-06T02:24:02;97034.44;;;7.35;94.00
65754;BME280;69207;47.502;18.940;2024-01-06T02:25:07;97039.66;;;7.31;94.13
65754;BME280;69207;47.502;18.940;2024-01-06T02:26:16;97035.50;;;7.30;94.37
65754;BME280;69207;47.502;18.940;2024-01-06T02:27:19;97039.31;;;7.36;94.44
65754;BME280;69207;47.502;18.940;2024-01-06T02:28:22;97032.88;;;7.32;94.59
65754;BME280;69207;47.502;18.940;2024-01-06T02:29:25;97039.38;;;7.27;94.77
65754;BME280;69207;47.502;18.940;2024-01-06T02:30:29;97031.06;;;7.25;94.86
65754;BME280;69207;47.502;18.940;2024-01-06T02:31:32;97031.06;;;7.25;95.15
65754;BME280;69207;47.502;18.940;2024-01-06T02:32:35;97028.78;;;7.21;95.35
65754;BME280;69207;47.502;18.940;2024-01-06T02:33:38;97025.22;;;7.19;95.57
65754;BME280;69207;47.502;18.940;2024-01-06T02:34:41;97023.91;;;7.20;95.63
65754;BME280;69207;47.502;18.940;2024-01-06T02:35:48;97027.41;;;7.32;95.32
65754;BME280;69207;47.502;18.940;2024-01-06T02:36:51;97017.47;;;7.36;94.60
65754;BME280;69207;47.502;18.940;2024-01-06T02:37:54;97022.66;;;7.32;94.91
65754;BME280;69207;47.502;18.940;2024-01-06T02:38:57;97018.06;;;7.35;95.02
65754;BME280;69207;47.502;18.940;2024-01-06T02:40:01;97021.50;;;7.35;95.06
65754;BME280;69207;47.502;18.940;2024-01-06T02:41:04;97027.47;;;7.44;94.62
65754;BME280;69207;47.502;18.940;2024-01-06T02:42:08;97017.28;;;7.44;94.59
65754;BME280;69207;47.502;18.940;2024-01-06T02:43:11;97011.88;;;7.56;93.49
65754;BME280;69207;47.502;18.940;2024-01-06T02:44:14;97010.59;;;7.68;92.64
65754;BME280;69207;47.502;18.940;2024-01-06T02:45:17;97001.41;;;7.64;92.88
65754;BME280;69207;47.502;18.940;2024-01-06T02:46:20;97009.16;;;7.67;92.81
65754;BME280;69207;47.502;18.940;2024-01-06T02:47:23;97010.81;;;7.61;93.19
65754;BME280;69207;47.502;18.940;2024-01-06T02:48:27;97011.28;;;7.57;93.62
65754;BME280;69207;47.502;18.940;2024-01-06T02:49:33;97013.63;;;7.51;94.04
65754;BME280;69207;47.502;18.940;2024-01-06T02:50:36;97014.94;;;7.50;94.10
65754;BME280;69207;47.502;18.940;2024-01-06T02:51:39;97020.41;;;7.50;93.99
65754;BME280;69207;47.502;18.940;2024-01-06T02:52:44;97007.34;;;7.60;93.09
65754;BME280;69207;47.502;18.940;2024-01-06T02:53:47;97006.97;;;7.54;93.31
65754;BME280;69207;47.502;18.940;2024-01-06T02:54:51;97008.59;;;7.48;93.78
65754;BME280;69207;47.502;18.940;2024-01-06T02:55:54;97005.81;;;7.57;93.29
65754;BME280;69207;47.502;18.940;2024-01-06T02:56:57;97010.19;;;7.51;93.41
65754;BME280;69207;47.502;18.940;2024-01-06T02:58:00;97009.19;;;7.46;93.84
65754;BME280;69207;47.502;18.940;2024-01-06T02:59:03;97006.34;;;7.44;94.22
65754;BME280;69207;47.502;18.940;2024-01-06T03:00:07;96998.00;;;7.42;94.52
65754;BME280;69207;47.502;18.940;2024-01-06T03:01:11;96993.72;;;7.39;94.71
65754;BME280;69207;47.502;18.940;2024-01-06T03:02:15;96993.72;;;7.39;94.75
65754;BME280;69207;47.502;18.940;2024-01-06T03:03:18;96995.50;;;7.34;94.78
65754;BME280;69207;47.502;18.940;2024-01-06T03:04:21;96992.38;;;7.28;95.07
65754;BME280;69207;47.502;18.940;2024-01-06T03:05:25;97002.34;;;7.24;95.56
65754;BME280;69207;47.502;18.940;2024-01-06T03:06:28;96997.56;;;7.24;95.69
65754;BME280;69207;47.502;18.940;2024-01-06T03:07:31;96987.47;;;7.27;95.61
65754;BME280;69207;47.502;18.940;2024-01-06T03:08:34;96981.63;;;7.21;95.98
65754;BME280;69207;47.502;18.940;2024-01-06T03:09:37;96989.00;;;7.18;96.25
65754;BME280;69207;47.502;18.940;2024-01-06T03:10:42;96984.84;;;7.17;96.22
65754;BME280;69207;47.502;18.940;2024-01-06T03:11:46;96987.44;;;7.15;96.33
65754;BME280;69207;47.502;18.940;2024-01-06T03:12:49;96978.19;;;7.20;96.37
65754;BME280;69207;47.502;18.940;2024-01-06T03:13:52;96971.56;;;7.23;95.68
65754;BME280;69207;47.502;18.940;2024-01-06T03:14:56;96981.25;;;7.14;96.34
65754;BME280;69207;47.502;18.940;2024-01-06T03:16:03;96971.25;;;7.07;96.74
65754;BME280;69207;47.502;18.940;2024-01-06T03:17:07;96969.28;;;6.98;97.51
65754;BME280;69207;47.502;18.940;2024-01-06T03:18:13;96971.38;;;7.09;97.65
65754;BME280;69207;47.502;18.940;2024-01-06T03:19:16;96963.00;;;7.17;97.50
65754;BME280;69207;47.502;18.940;2024-01-06T03:20:20;96964.59;;;7.10;97.65
65754;BME280;69207;47.502;18.940;2024-01-06T03:21:23;96959.47;;;7.05;98.22
65754;BME280;69207;47.502;18.940;2024-01-06T03:22:26;96963.19;;;7.09;98.31
65754;BME280;69207;47.502;18.940;2024-01-06T03:23:29;96965.66;;;7.05;98.31
65754;BME280;69207;47.502;18.940;2024-01-06T03:24:32;96962.41;;;6.97;98.77
65754;BME280;69207;47.502;18.940;2024-01-06T03:25:36;96963.31;;;6.90;99.35
65754;BME280;69207;47.502;18.940;2024-01-06T03:26:39;96960.22;;;6.84;99.73
65754;BME280;69207;47.502;18.940;2024-01-06T03:27:42;96960.25;;;6.74;100.00
65754;BME280;69207;47.502;18.940;2024-01-06T03:28:49;96960.37;;;6.76;100.00
65754;BME280;69207;47.502;18.940;2024-01-06T03:29:52;96967.72;;;6.74;100.00
65754;BME280;69207;47.502;18.940;2024-01-06T03:30:55;96968.72;;;6.78;100.00
65754;BME280;69207;47.502;18.940;2024-01-06T03:31:59;96969.88;;;6.75;100.00
65754;BME280;69207;47.502;18.940;2024-01-06T03:33:02;96972.81;;;6.89;100.00
65754;BME280;69207;47.502;18.940;2024-01-06T03:34:05;96968.25;;;6.82;100.00
65754;BME280;69207;47.502;18.940;2024-01-06T03:35:09;96968.25;;;6.82;100.00
65754;BME280;69207;47.502;18.940;2024-01-06T03:36:12;96968.44;;;6.74;100.00
65754;BME280;69207;47.502;18.940;2024-01-06T03:37:16;96965.31;;;6.68;100.00
65754;BME280;69207;47.502;18.940;2024-01-06T03:38:19;96964.34;;;6.64;100.00
65754;BME280;69207;47.502;18.940;2024-01-06T03:39:22;96967.19;;;6.66;100.00
65754;BME280;69207;47.502;18.940;2024-01-06T03:40:25;96960.19;;;6.62;100.00
65754;BME280;69207;47.502;18.940;2024-01-06T03:41:29;96965.19;;;6.66;100.00
65754;BME280;69207;47.502;18.940;2024-01-06T03:42:32;96973.50;;;6.68;100.00
65754;BME280;69207;47.502;18.940;2024-01-06T03:43:35;96975.84;;;6.62;100.00
65754;BME280;69207;47.502;18.940;2024-01-06T03:44:38;96973.56;;;6.58;100.00
65754;BME280;69207;47.502;18.940;2024-01-06T03:45:42;96977.72;;;6.59;100.00
65754;BME280;69207;47.502;18.940;2024-01-06T03:46:46;96982.19;;;6.55;100.00
65754;BME280;69207;47.502;18.940;2024-01-06T03:47:49;96975.94;;;6.43;100.00
65754;BME280;69207;47.502;18.940;2024-01-06T03:48:53;96975.22;;;6.42;100.00
65754;BME280;69207;47.502;18.940;2024-01-06T03:49:57;96975.25;;;6.32;100.00
65754;BME280;69207;47.502;18.940;2024-01-06T03:51:02;96981.00;;;6.27;100.00
65754;BME280;69207;47.502;18.940;2024-01-06T03:52:06;96982.19;;;6.24;100.00
65754;BME280;69207;47.502;18.940;2024-01-06T03:53:09;96982.91;;;6.24;100.00
65754;BME280;69207;47.502;18.940;2024-01-06T03:54:12;96989.06;;;6.25;100.00
65754;BME280;69207;47.502;18.940;2024-01-06T03:55:16;96991.53;;;6.21;100.00
65754;BME280;69207;47.502;18.940;2024-01-06T03:56:19;96989.38;;;6.19;100.00
65754;BME280;69207;47.502;18.940;2024-01-06T03:57:22;96995.41;;;6.18;100.00
65754;BME280;69207;47.502;18.940;2024-01-06T03:58:25;96996.25;;;6.20;100.00
65754;BME280;69207;47.502;18.940;2024-01-06T03:59:28;97003.84;;;6.22;100.00
65754;BME280;69207;47.502;18.940;2024-01-06T04:00:32;97013.34;;;6.21;100.00
65754;BME280;69207;47.502;18.940;2024-01-06T04:01:36;97012.19;;;6.24;100.00
65754;BME280;69207;47.502;18.940;2024-01-06T04:02:39;97012.59;;;6.30;100.00
65754;BME280;69207;47.502;18.940;2024-01-06T04:03:42;97007.28;;;6.32;100.00
65754;BME280;69207;47.502;18.940;2024-01-06T04:04:46;97004.09;;;6.35;100.00
65754;BME280;69207;47.502;18.940;2024-01-06T04:05:49;97007.53;;;6.36;100.00
65754;BME280;69207;47.502;18.940;2024-01-06T04:06:52;97016.31;;;6.34;100.00
65754;BME280;69207;47.502;18.940;2024-01-06T04:07:56;97013.91;;;6.29;100.00
65754;BME280;69207;47.502;18.940;2024-01-06T04:09:00;97007.31;;;6.22;100.00
65754;BME280;69207;47.502;18.940;2024-01-06T04:10:03;97006.75;;;6.24;100.00
65754;BME280;69207;47.502;18.940;2024-01-06T04:11:09;97003.84;;;6.22;100.00
65754;BME280;69207;47.502;18.940;2024-01-06T04:12:12;96999.69;;;6.30;100.00
65754;BME280;69207;47.502;18.940;2024-01-06T04:13:16;96998.13;;;6.27;100.00
65754;BME280;69207;47.502;18.940;2024-01-06T04:14:19;96990.53;;;6.16;100.00
65754;BME280;69207;47.502;18.940;2024-01-06T04:15:22;96984.91;;;6.24;100.00
65754;BME280;69207;47.502;18.940;2024-01-06T04:16:26;96992.09;;;6.19;100.00
65754;BME280;69207;47.502;18.940;2024-01-06T04:17:30;96996.97;;;6.21;100.00
65754;BME280;69207;47.502;18.940;2024-01-06T04:18:33;96994.84;;;6.19;100.00
65754;BME280;69207;47.502;18.940;2024-01-06T04:19:37;96990.41;;;6.04;100.00
65754;BME280;69207;47.502;18.940;2024-01-06T04:20:40;96992.31;;;6.02;100.00
65754;BME280;69207;47.502;18.940;2024-01-06T04:21:43;96991.59;;;6.01;100.00
65754;BME280;69207;47.502;18.940;2024-01-06T04:22:46;97001.06;;;5.91;100.00
65754;BME280;69207;47.502;18.940;2024-01-06T04:23:49;97017.12;;;5.87;100.00
65754;BME280;69207;47.502;18.940;2024-01-06T04:24:52;97019.72;;;5.85;100.00
65754;BME280;69207;47.502;18.940;2024-01-06T04:25:55;97021.44;;;5.80;100.00
65754;BME280;69207;47.502;18.940;2024-01-06T04:26:58;97019.16;;;5.76;100.00
65754;BME280;69207;47.502;18.940;2024-01-06T04:28:01;97028.63;;;5.75;100.00
65754;BME280;69207;47.502;18.940;2024-01-06T04:29:05;97022.44;;;5.75;100.00
65754;BME280;69207;47.502;18.940;2024-01-06T04:30:08;97021.03;;;5.74;100.00
65754;BME280;69207;47.502;18.940;2024-01-06T04:31:12;97026.59;;;5.76;100.00
65754;BME280;69207;47.502;18.940;2024-01-06T04:32:16;97030.75;;;5.77;100.00
65754;BME280;69207;47.502;18.940;2024-01-06T04:33:19;97032.78;;;5.76;100.00
65754;BME280;69207;47.502;18.940;2024-01-06T04:34:22;97024.72;;;5.88;100.00
65754;BME280;69207;47.502;18.940;2024-01-06T04:35:26;97027.75;;;5.82;100.00
65754;BME280;69207;47.502;18.940;2024-01-06T04:36:29;97028.31;;;5.81;100.00
65754;BME280;69207;47.502;18.940;2024-01-06T04:37:32;97019.44;;;5.90;100.00
65754;BME280;69207;47.502;18.940;2024-01-06T04:38:35;97017.41;;;5.91;100.00
65754;BME280;69207;47.502;18.940;2024-01-06T04:39:38;97008.22;;;5.86;100.00
65754;BME280;69207;47.502;18.940;2024-01-06T04:40:42;97013.97;;;5.80;100.00
65754;BME280;69207;47.502;18.940;2024-01-06T04:41:46;97010.25;;;5.86;100.00
65754;BME280;69207;47.502;18.940;2024-01-06T04:42:49;97012.38;;;5.87;100.00
65754;BME280;69207;47.502;18.940;2024-01-06T04:43:52;97015.69;;;5.86;100.00
65754;BME280;69207;47.502;18.940;2024-01-06T04:44:55;97009.41;;;5.83;100.00
65754;BME280;69207;47.502;18.940;2024-01-06T04:45:58;97006.37;;;5.79;100.00
65754;BME280;69207;47.502;18.940;2024-01-06T04:47:01;97006.22;;;5.77;100.00
65754;BME280;69207;47.502;18.940;2024-01-06T04:48:05;97008.25;;;5.76;100.00
65754;BME280;69207;47.502;18.940;2024-01-06T04:49:10;97004.66;;;5.74;100.00
65754;BME280;69207;47.502;18.940;2024-01-06T04:50:13;97003.22;;;5.82;100.00
65754;BME280;69207;47.502;18.940;2024-01-06T04:51:16;97000.47;;;5.82;100.00
65754;BME280;69207;47.502;18.940;2024-01-06T04:52:19;96994.47;;;5.84;100.00
65754;BME280;69207;47.502;18.940;2024-01-06T04:53:22;97007.69;;;5.78;100.00
65754;BME280;69207;47.502;18.940;2024-01-06T04:54:25;97008.97;;;5.77;100.00
65754;BME280;69207;47.502;18.940;2024-01-06T04:55:28;97005.97;;;5.73;100.00
65754;BME280;69207;47.502;18.940;2024-01-06T04:56:31;97009.84;;;5.70;100.00
65754;BME280;69207;47.502;18.940;2024-01-06T04:57:38;97003.66;;;5.69;100.00
65754;BME280;69207;47.502;18.940;2024-01-06T04:58:42;96997.78;;;5.73;100.00
65754;BME280;69207;47.502;18.940;2024-01-06T04:59:45;96995.63;;;5.71;100.00
65754;BME280;69207;47.502;18.940;2024-01-06T05:00:48;97000.22;;;5.69;100.00
65754;BME280;69207;47.502;18.940;2024-01-06T05:01:54;96998.09;;;5.67;100.00
65754;BME280;69207;47.502;18.940;2024-01-06T05:02:57;96991.78;;;5.65;100.00
65754;BME280;69207;47.502;18.940;2024-01-06T05:04:01;96988.34;;;5.64;100.00
65754;BME280;69207;47.502;18.940;2024-01-06T05:05:04;96989.03;;;5.65;100.00
65754;BME280;69207;47.502;18.940;2024-01-06T05:06:08;96985.59;;;5.64;100.00
65754;BME280;69207;47.502;18.940;2024-01-06T05:07:11;96991.94;;;5.67;100.00
65754;BME280;69207;47.502;18.940;2024-01-06T05:08:15;96991.34;;;5.68;100.00
65754;BME280;69207;47.502;18.940;2024-01-06T05:09:20;96986.47;;;5.67;100.00
65754;BME280;69207;47.502;18.940;2024-01-06T05:10:23;96993.34;;;5.68;100.00
65754;BME280;69207;47.502;18.940;2024-01-06T05:11:26;96985.03;;;5.66;100.00
65754;BME280;69207;47.502;18.940;2024-01-06T05:12:30;96982.16;;;5.64;100.00
65754;BME280;69207;47.502;18.940;2024-01-06T05:13:33;96976.59;;;5.62;100.00
65754;BME280;69207;47.502;18.940;2024-01-06T05:14:36;96980.88;;;5.65;100.00
65754;BME280;69207;47.502;18.940;2024-01-06T05:15:39;96977.56;;;5.66;100.00
65754;BME280;69207;47.502;18.940;2024-01-06T05:16:42;96969.53;;;5.68;100.00
65754;BME280;69207;47.502;18.940;2024-01-06T05:17:45;96974.13;;;5.75;100.00
65754;BME280;69207;47.502;18.940;2024-01-06T05:18:48;96974.97;;;5.78;100.00
65754;BME280;69207;47.502;18.940;2024-01-06T05:19:51;96969.53;;;5.78;100.00
65754;BME280;69207;47.502;18.940;2024-01-06T05:20:55;96977.72;;;5.78;100.00
65754;BME280;69207;47.502;18.940;2024-01-06T05:21:58;96970.97;;;5.79;100.00
65754;BME280;69207;47.502;18.940;2024-01-06T05:23:01;96966.66;;;5.76;100.00
65754;BME280;69207;47.502;18.940;2024-01-06T05:24:05;96974.53;;;5.81;100.00
65754;BME280;69207;47.502;18.940;2024-01-06T05:25:08;96966.06;;;5.87;100.00
65754;BME280;69207;47.502;18.940;2024-01-06T05:26:12;96973.22;;;5.82;100.00
65754;BME280;69207;47.502;18.940;2024-01-06T05:27:16;96979.69;;;5.87;100.00
65754;BME280;69207;47.502;18.940;2024-01-06T05:28:20;96982.87;;;5.83;100.00
65754;BME280;69207;47.502;18.940;2024-01-06T05:29:23;96980.44;;;5.78;100.00
65754;BME280;69207;47.502;18.940;2024-01-06T05:30:28;96978.97;;;5.77;100.00
65754;BME280;69207;47.502;18.940;2024-01-06T05:31:31;96975.69;;;5.78;100.00
65754;BME280;69207;47.502;18.940;2024-01-06T05:32:37;96983.16;;;5.78;100.00
65754;BME280;69207;47.502;18.940;2024-01-06T05:33:41;96982.41;;;5.87;100.00
65754;BME280;69207;47.502;18.940;2024-01-06T05:34:45;96981.81;;;5.98;100.00